Time;durP1;ratioP1;P1;durP2;ratioP2;P2;SDS_P1;SDS_P2;PMS_P1;PMS_P2;Temp;Humidity;BMP_temperature;BMP_pressure;BME280_temperature;BME280_humidity;BME280_pressure;Samples;Min_cycle;Max_cycle;Signal;HPM_P1;HPM_P2
2021/07/05 00:00:49;;;;;;;0.47;0.33;;;17.60;99.90;;;;;;5053319;28;20490;-85
2021/07/05 00:03:16;;;;;;;0.90;0.37;;;17.60;99.90;;;;;;5055987;28;20201;-84
2021/07/05 00:05:41;;;;;;;0.73;0.20;;;17.60;99.90;;;;;;5050464;28;20235;-85
2021/07/05 00:08:07;;;;;;;0.17;0.17;;;17.60;99.90;;;;;;5032761;28;20665;-84
2021/07/05 00:10:33;;;;;;;0.40;0.40;;;17.60;99.90;;;;;;5032704;28;20232;-85
2021/07/05 00:12:59;;;;;;;0.33;0.33;;;17.40;99.90;;;;;;5051532;28;20208;-85
2021/07/05 00:15:30;;;;;;;0.20;0.20;;;17.20;99.90;;;;;;5042753;28;20195;-85
2021/07/05 00:18:04;;;;;;;0.30;0.30;;;17.00;99.90;;;;;;5036611;28;20197;-85
2021/07/05 00:20:33;;;;;;;0.10;0.10;;;16.80;99.90;;;;;;5035734;28;20189;-85
2021/07/05 00:22:59;;;;;;;0.20;0.20;;;16.70;99.90;;;;;;5065855;28;20213;-85
2021/07/05 00:25:25;;;;;;;0.10;0.10;;;16.90;99.90;;;;;;5028527;28;20582;-85
2021/07/05 00:27:51;;;;;;;0.20;0.10;;;16.90;99.90;;;;;;5032226;28;20596;-85
2021/07/05 00:30:18;;;;;;;0.20;0.20;;;16.90;99.90;;;;;;5037368;28;20570;-85
2021/07/05 00:32:45;;;;;;;0.10;0.10;;;16.80;99.90;;;;;;5034020;28;20258;-85
2021/07/05 00:35:12;;;;;;;0.20;0.20;;;16.80;99.90;;;;;;5036754;28;20197;-85
2021/07/05 00:37:38;;;;;;;0.30;0.30;;;16.80;99.90;;;;;;5034337;28;20181;-85
2021/07/05 00:40:05;;;;;;;0.17;0.17;;;16.50;99.90;;;;;;5042343;28;20185;-85
2021/07/05 00:42:31;;;;;;;0.53;0.40;;;16.50;99.90;;;;;;5066325;28;20339;-85
2021/07/05 00:44:57;;;;;;;0.30;0.30;;;16.40;99.90;;;;;;5057638;28;20283;-85
2021/07/05 00:47:23;;;;;;;6.00;1.70;;;16.30;99.90;;;;;;5035377;28;20200;-85
2021/07/05 00:49:49;;;;;;;0.20;0.20;;;16.20;99.90;;;;;;5032775;28;20569;-85
2021/07/05 00:52:15;;;;;;;0.10;0.10;;;16.10;99.90;;;;;;5032421;28;20696;-84
2021/07/05 00:54:41;;;;;;;0.20;0.20;;;16.00;99.90;;;;;;5036050;28;20327;-84
2021/07/05 00:57:20;;;;;;;0.50;0.20;;;16.00;99.90;;;;;;5050273;28;20259;-85
2021/07/05 00:59:48;;;;;;;0.10;0.10;;;16.00;99.90;;;;;;5032373;28;20192;-85
2021/07/05 01:02:14;;;;;;;0.20;0.20;;;15.90;99.90;;;;;;5031794;28;20200;-85
2021/07/05 01:04:39;;;;;;;0.40;0.20;;;15.80;99.90;;;;;;5033482;28;20216;-85
2021/07/05 01:07:05;;;;;;;0.10;0.10;;;15.80;99.90;;;;;;5031930;28;20200;-84
2021/07/05 01:09:31;;;;;;;0.63;0.43;;;15.80;99.90;;;;;;5059005;28;20334;-84
2021/07/05 01:11:56;;;;;;;0.10;0.10;;;15.90;99.90;;;;;;5031599;28;20304;-84
2021/07/05 01:14:22;;;;;;;0.27;0.27;;;16.10;99.90;;;;;;5032370;28;20290;-85
2021/07/05 01:16:48;;;;;;;2.70;1.10;;;16.00;99.90;;;;;;5049363;28;20200;-85
2021/07/05 01:19:13;;;;;;;0.13;0.13;;;16.00;99.90;;;;;;5048700;28;20930;-84
2021/07/05 01:21:39;;;;;;;0.10;0.10;;;16.10;99.90;;;;;;5033588;28;20192;-87
2021/07/05 01:24:05;;;;;;;0.30;0.30;;;16.20;99.90;;;;;;5035480;28;20209;-87
2021/07/05 01:26:31;;;;;;;0.10;0.10;;;16.20;99.90;;;;;;5033726;28;20241;-87
2021/07/05 01:28:56;;;;;;;0.17;0.17;;;16.20;99.90;;;;;;5031980;28;20189;-87
2021/07/05 01:31:22;;;;;;;0.37;0.37;;;16.20;99.90;;;;;;5033714;28;20258;-87
2021/07/05 01:33:48;;;;;;;0.20;0.20;;;16.00;99.90;;;;;;5035204;28;20241;-87
2021/07/05 01:36:13;;;;;;;0.30;0.30;;;16.00;99.90;;;;;;5055310;28;20176;-87
2021/07/05 01:38:42;;;;;;;0.10;0.10;;;16.00;99.90;;;;;;5037608;28;20266;-87
2021/07/05 01:41:08;;;;;;;0.30;0.30;;;16.00;99.90;;;;;;5037968;28;20572;-87
2021/07/05 01:43:44;;;;;;;0.10;0.10;;;16.00;99.90;;;;;;5054866;28;20210;-86
2021/07/05 01:46:10;;;;;;;0.10;0.10;;;16.00;99.90;;;;;;5037929;28;20192;-87
2021/07/05 01:48:36;;;;;;;0.30;0.30;;;16.20;99.90;;;;;;5055601;28;20378;-86
2021/07/05 01:51:01;;;;;;;0.30;0.30;;;16.40;99.90;;;;;;5055764;28;20356;-87
2021/07/05 01:53:27;;;;;;;0.20;0.20;;;16.30;99.90;;;;;;5054217;28;20204;-87
2021/07/05 01:55:53;;;;;;;0.20;0.20;;;16.50;99.90;;;;;;5055158;28;20263;-87
2021/07/05 01:58:19;;;;;;;0.23;0.23;;;16.50;99.90;;;;;;5037488;28;20323;-87
2021/07/05 02:00:47;;;;;;;0.10;0.10;;;16.70;99.90;;;;;;5037408;28;20193;-87
2021/07/05 02:03:14;;;;;;;0.77;0.23;;;16.60;99.90;;;;;;5054081;28;20208;-87
2021/07/05 02:05:40;;;;;;;0.10;0.10;;;16.50;99.90;;;;;;5054009;28;20182;-87
2021/07/05 02:08:06;;;;;;;0.30;0.30;;;16.60;99.90;;;;;;5055178;28;20265;-87
2021/07/05 02:10:35;;;;;;;0.10;0.10;;;16.50;99.90;;;;;;5036984;28;20261;-87
2021/07/05 02:13:13;;;;;;;0.30;0.30;;;16.60;99.90;;;;;;5037294;28;20215;-87
2021/07/05 02:15:40;;;;;;;0.30;0.30;;;16.90;99.90;;;;;;5035200;28;21123;-87
2021/07/05 02:18:06;;;;;;;0.23;0.20;;;17.10;99.90;;;;;;5070403;28;20195;-86
2021/07/05 02:20:33;;;;;;;0.20;0.20;;;17.20;99.90;;;;;;5055258;28;20197;-87
2021/07/05 02:23:00;;;;;;;0.20;0.20;;;17.30;99.90;;;;;;5033760;28;20677;-87
2021/07/05 02:25:29;;;;;;;0.20;0.20;;;17.30;99.90;;;;;;5052356;28;20190;-87
2021/07/05 02:27:58;;;;;;;0.20;0.20;;;17.30;99.90;;;;;;5053160;28;20174;-87
2021/07/05 02:30:26;;;;;;;0.10;0.10;;;17.10;99.90;;;;;;5048447;28;20189;-87
2021/07/05 02:32:52;;;;;;;0.27;0.27;;;16.80;99.90;;;;;;5034530;28;20244;-86
2021/07/05 02:35:20;;;;;;;0.30;0.30;;;16.80;99.90;;;;;;5036581;28;20178;-87
2021/07/05 02:37:48;;;;;;;0.20;0.20;;;16.70;99.90;;;;;;5054718;28;20199;-87
2021/07/05 02:40:18;;;;;;;0.17;0.17;;;16.70;99.90;;;;;;5036334;28;20188;-87
2021/07/05 02:42:51;;;;;;;0.23;0.23;;;16.80;99.90;;;;;;5027230;28;20571;-87
2021/07/05 02:45:22;;;;;;;0.20;0.20;;;17.00;99.90;;;;;;5054387;28;20279;-87
2021/07/05 02:47:56;;;;;;;0.20;0.20;;;17.00;99.90;;;;;;5054506;28;20221;-87
2021/07/05 02:50:22;;;;;;;0.10;0.10;;;16.90;99.90;;;;;;5036461;28;20185;-87
2021/07/05 02:52:49;;;;;;;0.20;0.20;;;16.80;99.90;;;;;;5053213;28;20213;-87
2021/07/05 02:55:14;;;;;;;0.23;0.23;;;16.90;99.90;;;;;;5064063;28;20260;-87
2021/07/05 02:57:43;;;;;;;0.30;0.30;;;17.00;99.90;;;;;;5052848;28;20272;-87
2021/07/05 03:00:12;;;;;;;0.20;0.20;;;17.10;99.90;;;;;;5036532;28;20194;-88
2021/07/05 03:02:39;;;;;;;0.23;0.20;;;17.20;99.90;;;;;;5036750;28;20220;-87
2021/07/05 03:05:08;;;;;;;0.50;0.50;;;17.30;99.90;;;;;;5036235;28;20247;-87
2021/07/05 03:07:34;;;;;;;0.17;0.17;;;17.20;99.90;;;;;;5053863;28;20178;-87
2021/07/05 03:10:00;;;;;;;1.23;1.23;;;17.10;99.90;;;;;;5036274;28;20284;-86
2021/07/05 03:12:26;;;;;;;0.37;0.30;;;17.20;99.90;;;;;;5037670;28;20687;-87
2021/07/05 03:14:54;;;;;;;0.30;0.30;;;17.00;99.90;;;;;;5054041;28;20177;-87
2021/07/05 03:17:20;;;;;;;0.33;0.33;;;16.90;99.90;;;;;;5035989;28;20207;-87
2021/07/05 03:19:45;;;;;;;0.27;0.27;;;16.80;99.90;;;;;;5053226;28;20553;-88
2021/07/05 03:22:11;;;;;;;0.43;0.40;;;16.60;99.90;;;;;;5054175;28;20272;-87
2021/07/05 03:24:37;;;;;;;0.30;0.30;;;16.70;99.90;;;;;;5053365;28;20696;-86
2021/07/05 03:27:03;;;;;;;0.77;0.70;;;17.00;99.90;;;;;;5038105;28;20672;-87
2021/07/05 03:29:28;;;;;;;0.20;0.20;;;16.70;99.90;;;;;;5053586;28;20186;-86
2021/07/05 03:31:54;;;;;;;0.67;0.30;;;16.70;99.90;;;;;;5056114;28;20209;-86
2021/07/05 03:34:20;;;;;;;0.20;0.20;;;16.90;99.90;;;;;;5033926;28;20220;-87
2021/07/05 03:36:46;;;;;;;0.77;0.33;;;17.00;99.90;;;;;;5047939;28;20542;-87
2021/07/05 03:39:11;;;;;;;1.60;0.40;;;17.20;99.90;;;;;;5069371;28;20185;-86
2021/07/05 03:41:37;;;;;;;0.13;0.13;;;17.10;99.90;;;;;;5035632;28;20192;-87
2021/07/05 03:44:13;;;;;;;0.40;0.40;;;17.20;99.90;;;;;;5036626;28;20761;-87
2021/07/05 03:46:39;;;;;;;0.30;0.20;;;17.40;99.90;;;;;;5060536;28;20181;-90
2021/07/05 03:49:05;;;;;;;0.30;0.30;;;17.50;99.90;;;;;;5053899;28;20196;-87
2021/07/05 03:51:31;;;;;;;0.30;0.30;;;17.60;99.90;;;;;;5035382;28;20216;-87
2021/07/05 03:54:15;;;;;;;0.30;0.30;;;17.70;99.90;;;;;;5052608;28;20205;-86
2021/07/05 03:56:41;;;;;;;0.20;0.20;;;17.70;99.90;;;;;;5052123;28;20633;-86
2021/07/05 03:59:07;;;;;;;0.67;0.63;;;17.70;99.90;;;;;;5043883;28;20267;-87
2021/07/05 04:01:33;;;;;;;0.30;0.27;;;17.80;99.90;;;;;;5035205;28;20218;-86
2021/07/05 04:03:59;;;;;;;0.20;0.20;;;17.90;99.90;;;;;;5034376;28;20205;-87
2021/07/05 04:06:25;;;;;;;0.30;0.30;;;17.70;99.90;;;;;;5034995;28;20186;-86
2021/07/05 04:08:50;;;;;;;1.13;1.03;;;17.90;99.90;;;;;;5052425;28;20184;-87
2021/07/05 04:11:16;;;;;;;0.17;0.17;;;17.80;99.90;;;;;;5038386;28;20210;-87
2021/07/05 04:13:42;;;;;;;0.20;0.20;;;18.00;99.90;;;;;;5034486;28;20251;-87
2021/07/05 04:16:07;;;;;;;0.50;0.50;;;18.10;99.90;;;;;;5049220;28;20197;-86
2021/07/05 04:18:45;;;;;;;0.13;0.13;;;18.10;99.90;;;;;;5034688;28;20181;-87
2021/07/05 04:21:11;;;;;;;0.20;0.20;;;18.00;99.90;;;;;;5034952;28;20554;-88
2021/07/05 04:23:36;;;;;;;1.50;0.30;;;18.20;99.90;;;;;;5037894;28;20308;-86
2021/07/05 04:26:02;;;;;;;0.30;0.30;;;18.30;99.90;;;;;;5034584;28;20232;-86
2021/07/05 04:28:29;;;;;;;0.50;0.13;;;18.00;99.90;;;;;;5034440;28;20275;-87
2021/07/05 04:30:55;;;;;;;0.73;0.40;;;17.90;99.90;;;;;;5052843;28;20640;-87
2021/07/05 04:33:21;;;;;;;0.20;0.20;;;18.00;99.90;;;;;;5037826;28;20227;-87
2021/07/05 04:35:47;;;;;;;0.37;0.37;;;18.10;99.90;;;;;;5052151;28;20187;-87
2021/07/05 04:38:13;;;;;;;0.40;0.40;;;17.70;99.90;;;;;;5050476;28;20644;-87
2021/07/05 04:40:41;;;;;;;0.20;0.20;;;17.80;99.90;;;;;;5034703;28;20189;-86
2021/07/05 04:43:09;;;;;;;0.50;0.50;;;17.70;99.90;;;;;;5034156;28;20309;-87
2021/07/05 04:45:34;;;;;;;0.20;0.20;;;17.80;99.90;;;;;;5034326;28;20680;-86
2021/07/05 04:48:03;;;;;;;0.40;0.40;;;17.80;99.90;;;;;;5034210;28;20194;-86
2021/07/05 04:50:30;;;;;;;0.10;0.10;;;18.00;99.90;;;;;;5050590;28;20186;-86
2021/07/05 04:52:56;;;;;;;0.43;0.33;;;18.10;99.90;;;;;;5050346;28;20581;-88
2021/07/05 04:55:22;;;;;;;0.10;0.10;;;18.20;99.90;;;;;;5050439;28;20196;-87
2021/07/05 04:57:49;;;;;;;0.23;0.23;;;18.30;99.90;;;;;;5035718;28;20672;-87
2021/07/05 05:00:27;;;;;;;0.30;0.30;;;18.40;99.90;;;;;;5056618;28;20177;-87
2021/07/05 05:02:53;;;;;;;0.20;0.20;;;18.40;99.90;;;;;;5034468;28;20269;-86
2021/07/05 05:05:21;;;;;;;0.10;0.10;;;18.30;99.90;;;;;;5033634;28;20193;-87
2021/07/05 05:07:46;;;;;;;0.10;0.10;;;18.30;99.90;;;;;;5037179;28;20272;-87
2021/07/05 05:10:13;;;;;;;0.33;0.33;;;18.50;99.90;;;;;;5033670;28;20217;-87
2021/07/05 05:12:39;;;;;;;0.23;0.23;;;18.30;99.90;;;;;;5033344;28;20248;-86
2021/07/05 05:15:07;;;;;;;0.60;0.50;;;18.00;99.90;;;;;;5036916;28;20215;-86
2021/07/05 05:17:34;;;;;;;0.57;0.57;;;17.90;99.90;;;;;;5048260;28;20204;-85
2021/07/05 05:20:00;;;;;;;0.37;0.37;;;18.00;99.90;;;;;;5034636;28;20243;-85
2021/07/05 05:22:26;;;;;;;0.17;0.17;;;18.00;99.90;;;;;;5034647;28;20563;-85
2021/07/05 05:24:51;;;;;;;0.10;0.10;;;18.20;99.90;;;;;;5032768;28;20185;-88
2021/07/05 05:27:17;;;;;;;0.20;0.20;;;18.30;99.90;;;;;;5038076;28;20190;-86
2021/07/05 05:29:43;;;;;;;0.30;0.30;;;18.30;99.90;;;;;;5034597;28;20200;-87
2021/07/05 05:32:09;;;;;;;0.17;0.17;;;18.20;99.90;;;;;;5033405;28;20204;-87
2021/07/05 05:34:36;;;;;;;0.40;0.40;;;18.30;99.90;;;;;;5033462;28;20254;-87
2021/07/05 05:37:02;;;;;;;0.20;0.20;;;18.40;99.90;;;;;;5043757;28;20558;-87
2021/07/05 05:39:28;;;;;;;0.43;0.20;;;18.40;99.90;;;;;;5048688;28;20231;-87
2021/07/05 05:41:58;;;;;;;0.23;0.23;;;18.30;99.90;;;;;;5050427;28;20186;-87
2021/07/05 05:44:23;;;;;;;0.20;0.20;;;18.10;99.90;;;;;;5050126;28;20231;-87
2021/07/05 05:46:49;;;;;;;0.20;0.20;;;18.00;99.90;;;;;;5033578;28;20657;-87
2021/07/05 05:49:14;;;;;;;0.30;0.20;;;18.20;99.90;;;;;;5033497;28;20213;-86
2021/07/05 05:51:40;;;;;;;0.30;0.30;;;18.40;99.90;;;;;;5033587;28;20203;-86
2021/07/05 05:54:08;;;;;;;0.20;0.20;;;18.30;99.90;;;;;;5033930;28;20213;-87
2021/07/05 05:56:35;;;;;;;0.20;0.20;;;18.30;99.90;;;;;;5033388;28;20193;-87
2021/07/05 05:59:04;;;;;;;0.70;0.70;;;18.70;99.90;;;;;;5051870;28;20234;-87
2021/07/05 06:01:33;;;;;;;0.57;0.30;;;18.80;99.90;;;;;;5053560;28;20175;-87
2021/07/05 06:03:59;;;;;;;0.60;0.40;;;18.90;99.90;;;;;;5051453;28;20202;-87
2021/07/05 06:06:25;;;;;;;0.33;0.33;;;19.00;99.90;;;;;;5026439;28;20661;-87
2021/07/05 06:08:51;;;;;;;0.20;0.20;;;19.10;99.90;;;;;;5044176;28;20186;-88
2021/07/05 06:11:17;;;;;;;0.10;0.10;;;19.10;99.90;;;;;;5026131;28;20308;-87
2021/07/05 06:13:43;;;;;;;0.23;0.23;;;19.20;99.90;;;;;;5050606;28;20649;-87
2021/07/05 06:16:09;;;;;;;0.30;0.30;;;19.20;99.90;;;;;;5050439;28;20218;-87
2021/07/05 06:18:35;;;;;;;0.30;0.30;;;19.30;99.90;;;;;;5033770;28;20265;-87
2021/07/05 06:21:01;;;;;;;0.10;0.10;;;19.40;99.90;;;;;;5069317;28;20271;-86
2021/07/05 06:23:28;;;;;;;0.70;0.47;;;19.40;99.90;;;;;;5053916;28;20334;-86
2021/07/05 06:25:59;;;;;;;0.23;0.23;;;19.50;99.90;;;;;;5036069;28;20186;-87
2021/07/05 06:28:27;;;;;;;0.30;0.27;;;19.50;99.90;;;;;;5064041;28;20276;-86
2021/07/05 06:30:53;;;;;;;0.30;0.30;;;19.50;99.90;;;;;;5054851;28;20469;-87
2021/07/05 06:33:20;;;;;;;0.50;0.20;;;19.50;99.90;;;;;;5035090;28;20197;-85
2021/07/05 06:35:48;;;;;;;0.20;0.20;;;19.60;99.90;;;;;;5065504;28;20185;-86
2021/07/05 06:38:15;;;;;;;0.30;0.30;;;19.60;99.90;;;;;;5035975;28;20527;-85
2021/07/05 06:40:42;;;;;;;0.30;0.30;;;19.70;99.90;;;;;;5035594;28;20193;-85
2021/07/05 06:43:08;;;;;;;0.43;0.30;;;19.70;99.90;;;;;;5039608;28;20684;-88
2021/07/05 06:45:33;;;;;;;0.27;0.27;;;19.70;99.90;;;;;;5035051;28;20712;-86
2021/07/05 06:48:00;;;;;;;0.10;0.10;;;19.80;99.90;;;;;;5049726;28;20181;-85
2021/07/05 06:50:26;;;;;;;0.40;0.40;;;19.80;99.90;;;;;;5062853;28;20185;-86
2021/07/05 06:52:52;;;;;;;0.73;0.73;;;19.80;99.90;;;;;;5038202;28;20288;-85
2021/07/05 06:55:18;;;;;;;0.20;0.20;;;19.70;99.90;;;;;;5051229;28;20769;-85
2021/07/05 06:57:45;;;;;;;0.67;0.20;;;19.70;99.90;;;;;;5049581;28;20236;-85
2021/07/05 07:00:13;;;;;;;0.23;0.23;;;19.80;99.90;;;;;;5033815;28;20277;-85
2021/07/05 07:02:39;;;;;;;0.13;0.13;;;19.90;99.90;;;;;;5048414;28;20190;-86
2021/07/05 07:05:07;;;;;;;0.30;0.30;;;20.00;99.90;;;;;;5053472;28;20185;-86
2021/07/05 07:07:33;;;;;;;0.20;0.20;;;20.10;99.90;;;;;;5036164;28;20271;-85
2021/07/05 07:10:00;;;;;;;0.17;0.17;;;20.10;99.90;;;;;;5030449;28;20221;-84
2021/07/05 07:12:28;;;;;;;0.40;0.40;;;20.20;99.90;;;;;;5051497;28;20625;-86
2021/07/05 07:14:54;;;;;;;1.00;0.83;;;20.20;99.90;;;;;;5067975;28;20191;-86
2021/07/05 07:19:45;;;;;;;0.70;0.30;;;20.20;99.90;;;;;;5054387;28;20190;-86
2021/07/05 07:22:11;;;;;;;0.30;0.30;;;20.30;99.90;;;;;;5035843;28;20189;-86
2021/07/05 07:24:36;;;;;;;0.20;0.20;;;20.40;99.90;;;;;;5053610;28;20236;-86
2021/07/05 07:27:02;;;;;;;0.50;0.50;;;20.50;99.90;;;;;;5035864;28;20189;-86
2021/07/05 07:29:28;;;;;;;0.30;0.30;;;20.60;99.90;;;;;;5035531;28;20185;-86
2021/07/05 07:31:54;;;;;;;0.60;0.40;;;20.60;99.90;;;;;;5034200;28;20689;-86
2021/07/05 07:34:21;;;;;;;0.20;0.20;;;20.80;99.90;;;;;;5050133;28;20267;-85
2021/07/05 07:36:46;;;;;;;0.20;0.20;;;20.80;99.90;;;;;;5049838;28;20186;-86
2021/07/05 07:39:23;;;;;;;0.30;0.30;;;20.90;99.90;;;;;;5055787;28;20565;-87
2021/07/05 07:41:48;;;;;;;0.20;0.20;;;21.00;99.90;;;;;;5033802;28;20221;-86
2021/07/05 07:44:14;;;;;;;0.30;0.20;;;21.10;99.90;;;;;;5052075;28;20210;-83
2021/07/05 07:46:40;;;;;;;0.50;0.50;;;21.30;99.90;;;;;;5032797;28;20247;-84
2021/07/05 07:49:05;;;;;;;0.47;0.47;;;21.40;99.90;;;;;;5029476;28;20185;-84
2021/07/05 07:51:31;;;;;;;0.23;0.23;;;21.50;99.90;;;;;;5051723;28;20285;-86
2021/07/05 07:53:58;;;;;;;0.33;0.33;;;21.80;99.90;;;;;;5059203;28;20210;-86
2021/07/05 07:56:24;;;;;;;0.40;0.40;;;22.00;99.90;;;;;;5032284;28;20192;-85
2021/07/05 07:58:50;;;;;;;0.30;0.27;;;22.20;99.90;;;;;;5040895;28;20208;-85
2021/07/05 08:01:16;;;;;;;0.30;0.30;;;22.00;99.90;;;;;;5050666;28;20193;-88
2021/07/05 08:03:41;;;;;;;0.27;0.27;;;22.00;99.90;;;;;;5055371;28;20213;-85
2021/07/05 08:06:07;;;;;;;0.20;0.20;;;22.40;99.90;;;;;;5035109;28;20197;-86
2021/07/05 08:08:33;;;;;;;0.20;0.20;;;22.80;99.90;;;;;;5032017;28;20568;-85
2021/07/05 08:10:58;;;;;;;0.50;0.50;;;22.90;99.90;;;;;;5036066;28;20640;-84
2021/07/05 08:13:24;;;;;;;0.23;0.23;;;22.70;99.90;;;;;;5053227;28;20202;-86
2021/07/05 08:15:52;;;;;;;0.50;0.50;;;22.60;99.90;;;;;;5036911;28;20235;-85
2021/07/05 08:18:18;;;;;;;0.40;0.40;;;22.60;99.90;;;;;;5043282;28;20185;-85
2021/07/05 08:20:44;;;;;;;0.30;0.30;;;22.80;99.90;;;;;;5036172;28;20182;-85
2021/07/05 08:23:09;;;;;;;0.40;0.40;;;22.80;99.90;;;;;;5039046;28;20205;-86
2021/07/05 08:25:40;;;;;;;0.20;0.20;;;22.90;99.90;;;;;;5051844;28;20288;-85
2021/07/05 08:28:07;;;;;;;0.50;0.40;;;22.80;99.90;;;;;;5035174;28;20190;-86
2021/07/05 08:30:33;;;;;;;0.33;0.33;;;22.90;99.90;;;;;;5043947;28;20211;-86
2021/07/05 08:32:58;;;;;;;0.33;0.33;;;23.10;99.90;;;;;;5039372;28;20206;-85
2021/07/05 08:35:24;;;;;;;0.50;0.27;;;23.20;99.90;;;;;;5037386;28;20186;-86
2021/07/05 08:37:53;;;;;;;0.20;0.20;;;23.60;99.90;;;;;;5050870;28;20186;-85
2021/07/05 08:40:19;;;;;;;0.50;0.50;;;23.50;99.90;;;;;;5047438;28;20182;-86
2021/07/05 08:42:45;;;;;;;0.40;0.40;;;23.60;99.90;;;;;;5040506;28;20298;-87
2021/07/05 08:45:12;;;;;;;0.27;0.27;;;23.50;99.90;;;;;;5037981;28;20178;-84
2021/07/05 08:47:41;;;;;;;0.40;0.40;;;23.20;99.90;;;;;;5051033;28;20181;-83
2021/07/05 08:50:09;;;;;;;0.10;0.10;;;23.00;99.90;;;;;;5067280;28;20185;-83
2021/07/05 08:52:42;;;;;;;0.10;0.10;;;22.90;99.90;;;;;;5048175;28;20209;-84
2021/07/05 08:55:08;;;;;;;0.20;0.20;;;22.90;99.90;;;;;;5036302;28;20188;-83
2021/07/05 08:57:43;;;;;;;1.43;0.50;;;22.90;99.90;;;;;;5040058;28;20250;-83
2021/07/05 09:00:15;;;;;;;0.33;0.33;;;23.10;99.90;;;;;;5046849;28;20207;-83
2021/07/05 09:02:41;;;;;;;0.43;0.43;;;23.40;99.90;;;;;;5060313;28;20193;-86
2021/07/05 09:05:08;;;;;;;0.30;0.30;;;23.70;99.90;;;;;;5063897;28;20181;-84
2021/07/05 09:07:54;;;;;;;0.30;0.30;;;23.50;99.90;;;;;;5060923;28;20543;-86
2021/07/05 09:10:20;;;;;;;0.40;0.40;;;23.30;99.90;;;;;;5053123;28;20272;-89
2021/07/05 09:13:02;;;;;;;0.40;0.40;;;23.20;99.90;;;;;;5052519;28;20316;-86
2021/07/05 09:15:36;;;;;;;0.40;0.40;;;23.30;99.90;;;;;;5038051;28;20193;-87
2021/07/05 09:18:02;;;;;;;0.40;0.40;;;23.30;99.90;;;;;;5042018;28;20201;-85
2021/07/05 09:20:30;;;;;;;0.40;0.40;;;23.40;99.90;;;;;;5046424;28;20185;-85
2021/07/05 09:23:10;;;;;;;0.50;0.43;;;23.40;99.90;;;;;;5029313;28;20662;-86
2021/07/05 09:25:39;;;;;;;0.30;0.30;;;23.30;99.90;;;;;;5059994;28;20185;-86
2021/07/05 09:28:05;;;;;;;0.60;0.60;;;23.40;99.90;;;;;;5057637;28;20185;-86
2021/07/05 09:30:37;;;;;;;0.40;0.40;;;23.50;99.90;;;;;;5079224;28;20197;-86
2021/07/05 09:33:24;;;;;;;0.17;0.17;;;23.70;99.90;;;;;;5042004;28;20216;-86
2021/07/05 09:35:59;;;;;;;0.30;0.30;;;23.60;99.90;;;;;;5046645;28;20673;-87
2021/07/05 09:38:31;;;;;;;0.47;0.47;;;23.50;99.90;;;;;;5061922;28;20575;-86
2021/07/05 09:40:58;;;;;;;0.30;0.30;;;23.60;99.90;;;;;;5044191;28;20185;-87
2021/07/05 09:43:26;;;;;;;0.23;0.23;;;23.70;99.90;;;;;;5041010;28;20690;-85
2021/07/05 09:45:51;;;;;;;0.23;0.23;;;23.90;99.90;;;;;;5037655;28;20212;-86
2021/07/05 09:48:20;;;;;;;0.53;0.53;;;23.90;99.90;;;;;;5039900;28;20604;-87
2021/07/05 09:50:48;;;;;;;0.33;0.33;;;23.60;99.90;;;;;;5055186;28;20174;-87
2021/07/05 09:53:27;;;;;;;0.40;0.40;;;23.50;99.90;;;;;;5054185;28;20198;-86
2021/07/05 09:55:53;;;;;;;0.33;0.33;;;23.60;99.90;;;;;;5057115;28;20213;-86
2021/07/05 09:58:30;;;;;;;0.73;0.73;;;23.70;99.90;;;;;;5040997;28;20174;-86
2021/07/05 10:00:56;;;;;;;0.20;0.20;;;23.80;99.90;;;;;;5050356;28;20656;-87
2021/07/05 10:03:36;;;;;;;0.10;0.10;;;23.70;99.90;;;;;;5042060;28;20201;-86
2021/07/05 10:06:20;;;;;;;0.53;0.53;;;23.60;99.90;;;;;;5040969;28;20217;-86
2021/07/05 10:08:47;;;;;;;0.30;0.30;;;23.50;99.90;;;;;;5063572;28;20189;-86
2021/07/05 10:11:14;;;;;;;0.20;0.20;;;23.50;99.90;;;;;;5063525;28;20215;-86
2021/07/05 10:13:40;;;;;;;0.10;0.10;;;23.60;99.90;;;;;;5056719;28;20209;-86
2021/07/05 10:16:15;;;;;;;0.20;0.20;;;23.50;99.90;;;;;;5050746;28;20234;-85
2021/07/05 10:18:43;;;;;;;0.47;0.47;;;23.40;99.90;;;;;;5044999;28;20176;-86
2021/07/05 10:21:11;;;;;;;0.20;0.20;;;23.40;99.90;;;;;;5037247;28;20186;-86
2021/07/05 10:23:38;;;;;;;0.20;0.20;;;23.50;99.90;;;;;;5065611;28;20903;-86
2021/07/05 10:26:05;;;;;;;0.40;0.40;;;23.50;99.90;;;;;;5040559;28;20186;-86
2021/07/05 10:28:32;;;;;;;0.30;0.30;;;23.50;99.90;;;;;;5038568;28;20272;-86
2021/07/05 10:30:58;;;;;;;0.37;0.33;;;23.40;99.90;;;;;;5058058;28;20289;-86
2021/07/05 10:33:24;;;;;;;0.40;0.40;;;23.20;99.90;;;;;;5040904;28;20219;-86
2021/07/05 10:35:54;;;;;;;1.70;1.60;;;23.00;99.90;;;;;;5055364;28;20192;-85
2021/07/05 10:38:31;;;;;;;0.30;0.30;;;22.80;99.90;;;;;;5056788;28;20256;-87
2021/07/05 10:41:11;;;;;;;0.40;0.40;;;22.50;99.90;;;;;;5056170;28;20548;-87
2021/07/05 10:44:04;;;;;;;0.20;0.20;;;22.30;99.90;;;;;;5058030;28;20219;-86
2021/07/05 10:46:50;;;;;;;0.40;0.30;;;22.20;99.90;;;;;;5061862;28;20194;-87
2021/07/05 10:49:35;;;;;;;0.30;0.30;;;22.30;99.90;;;;;;5050208;28;20235;-86
2021/07/05 10:52:04;;;;;;;0.20;0.20;;;22.30;99.90;;;;;;5038808;28;20202;-86
2021/07/05 10:54:53;;;;;;;0.47;0.47;;;22.10;99.90;;;;;;5038399;28;20197;-87
2021/07/05 10:57:46;;;;;;;0.20;0.20;;;21.80;99.90;;;;;;5036335;28;20189;-87
2021/07/05 11:00:20;;;;;;;0.33;0.20;;;21.60;99.90;;;;;;5036469;28;20299;-87
2021/07/05 11:02:51;;;;;;;0.20;0.20;;;21.40;99.90;;;;;;5039624;28;20197;-88
2021/07/05 11:05:41;;;;;;;0.40;0.40;;;21.40;99.90;;;;;;5039638;28;20315;-87
2021/07/05 11:08:23;;;;;;;0.27;0.27;;;21.70;99.90;;;;;;5052430;28;20186;-87
2021/07/05 11:11:13;;;;;;;0.33;0.33;;;21.90;99.90;;;;;;5037978;28;20213;-87
2021/07/05 11:13:40;;;;;;;0.53;0.33;;;22.40;99.90;;;;;;5037551;28;20209;-87
2021/07/05 11:16:07;;;;;;;0.20;0.20;;;22.60;99.90;;;;;;5063588;28;20559;-86
2021/07/05 11:18:36;;;;;;;0.53;0.53;;;22.80;99.90;;;;;;5042077;28;20174;-87
2021/07/05 11:21:08;;;;;;;0.30;0.30;;;22.80;99.90;;;;;;5056184;28;20186;-87
2021/07/05 11:23:59;;;;;;;0.37;0.37;;;22.70;99.90;;;;;;5054404;28;20197;-86
2021/07/05 11:26:35;;;;;;;0.20;0.20;;;22.60;99.90;;;;;;5070452;28;20197;-87
2021/07/05 11:29:16;;;;;;;0.30;0.30;;;22.20;99.90;;;;;;5038956;28;20198;-87
2021/07/05 11:31:52;;;;;;;0.77;0.53;;;21.80;99.90;;;;;;5041575;28;20567;-86
2021/07/05 11:34:35;;;;;;;0.20;0.20;;;21.60;99.90;;;;;;5042989;28;20289;-86
2021/07/05 11:37:13;;;;;;;0.13;0.13;;;21.10;99.90;;;;;;5039030;28;20576;-87
2021/07/05 11:39:44;;;;;;;0.20;0.20;;;20.80;99.90;;;;;;5059033;28;20598;-87
2021/07/05 11:42:14;;;;;;;0.20;0.20;;;21.00;99.90;;;;;;5057007;28;20583;-87
2021/07/05 11:44:46;;;;;;;0.20;0.20;;;21.00;99.90;;;;;;5035802;28;20236;-87
2021/07/05 11:47:32;;;;;;;0.23;0.23;;;21.00;99.90;;;;;;5033868;28;20186;-87
2021/07/05 11:50:16;;;;;;;0.37;0.37;;;21.00;99.90;;;;;;5054602;28;20182;-87
2021/07/05 11:52:46;;;;;;;0.20;0.20;;;20.90;99.90;;;;;;5056137;28;20197;-87
2021/07/05 11:55:12;;;;;;;0.50;0.50;;;20.90;99.90;;;;;;5055767;28;20265;-88
2021/07/05 11:57:51;;;;;;;0.40;0.40;;;20.90;99.90;;;;;;5053378;28;20277;-86
2021/07/05 12:00:18;;;;;;;0.20;0.20;;;20.90;99.90;;;;;;5055725;28;20196;-86
2021/07/05 12:02:44;;;;;;;0.20;0.20;;;21.10;99.90;;;;;;5054668;28;20245;-87
2021/07/05 12:05:14;;;;;;;0.20;0.20;;;21.40;99.90;;;;;;5038944;28;20567;-88
2021/07/05 12:07:40;;;;;;;0.17;0.17;;;21.80;99.90;;;;;;5039385;28;20185;-86
2021/07/05 12:10:10;;;;;;;0.40;0.40;;;22.10;99.90;;;;;;5037763;28;20653;-87
2021/07/05 12:12:37;;;;;;;0.53;0.47;;;22.30;99.90;;;;;;5035383;28;20206;-87
2021/07/05 12:15:04;;;;;;;0.60;0.40;;;22.30;99.90;;;;;;5045823;28;20622;-87
2021/07/05 12:17:30;;;;;;;0.83;0.50;;;22.20;99.90;;;;;;5035984;28;20253;-86
2021/07/05 12:19:55;;;;;;;0.20;0.20;;;22.10;99.90;;;;;;5047349;28;20217;-87
2021/07/05 12:22:24;;;;;;;0.73;0.37;;;22.00;99.90;;;;;;5044437;28;20190;-86
2021/07/05 12:25:00;;;;;;;0.20;0.20;;;22.00;99.90;;;;;;5044546;28;20233;-84
2021/07/05 12:27:33;;;;;;;0.30;0.30;;;22.30;99.90;;;;;;5043287;28;20193;-87
2021/07/05 12:30:03;;;;;;;0.27;0.27;;;22.40;99.90;;;;;;5041632;28;20219;-86
2021/07/05 12:32:35;;;;;;;0.27;0.20;;;22.80;99.90;;;;;;5055950;28;20202;-86
2021/07/05 12:35:08;;;;;;;0.40;0.40;;;23.10;99.90;;;;;;5043893;28;20604;-87
2021/07/05 12:37:43;;;;;;;0.30;0.30;;;23.40;99.90;;;;;;5045889;28;20182;-86
2021/07/05 12:40:14;;;;;;;0.20;0.20;;;23.50;99.90;;;;;;5045986;28;20249;-87
2021/07/05 12:42:52;;;;;;;0.20;0.20;;;23.40;99.90;;;;;;5065795;28;20562;-86
2021/07/05 12:45:18;;;;;;;0.20;0.20;;;23.40;99.90;;;;;;5047175;28;20181;-86
2021/07/05 12:48:10;;;;;;;0.20;0.20;;;23.50;99.90;;;;;;5066653;28;20703;-86
2021/07/05 12:50:41;;;;;;;0.30;0.30;;;23.20;99.90;;;;;;5055423;28;20182;-86
2021/07/05 12:53:13;;;;;;;0.57;0.30;;;23.10;99.90;;;;;;5038309;28;20708;-86
2021/07/05 12:55:52;;;;;;;0.20;0.17;;;23.00;99.90;;;;;;5055244;28;20186;-86
2021/07/05 12:58:46;;;;;;;0.40;0.40;;;22.80;99.90;;;;;;5054941;28;20209;-86